Time;durP1;ratioP1;P1;durP2;ratioP2;P2;SDS_P1;SDS_P2;PMS_P1;PMS_P2;Temp;Humidity;BMP_temperature;BMP_pressure;BME280_temperature;BME280_humidity;BME280_pressure;Samples;Min_cycle;Max_cycle;Signal;HPM_P1;HPM_P2
2022/02/17 00:01:04;;;;;;;20.80;4.15;;;10.20;99.90;;;;;;5033843;28;20476;-70
2022/02/17 00:03:30;;;;;;;15.32;2.85;;;10.20;99.90;;;;;;5032172;28;20034;-70
2022/02/17 00:05:56;;;;;;;18.02;3.00;;;10.20;99.90;;;;;;5030807;28;20056;-70
2022/02/17 00:08:22;;;;;;;14.07;3.17;;;10.20;99.90;;;;;;5028976;28;20041;-70
2022/02/17 00:10:48;;;;;;;16.90;3.28;;;10.10;99.90;;;;;;5032173;28;20038;-70
2022/02/17 00:13:13;;;;;;;21.80;4.32;;;10.10;99.90;;;;;;5013741;28;20037;-70
2022/02/17 00:15:39;;;;;;;13.68;3.05;;;10.10;99.90;;;;;;5032095;28;20044;-70
2022/02/17 00:18:13;;;;;;;16.05;3.05;;;10.10;99.90;;;;;;5012889;28;20111;-70
2022/02/17 00:20:39;;;;;;;21.40;3.90;;;10.10;99.90;;;;;;5029509;28;20030;-70
2022/02/17 00:23:05;;;;;;;20.73;4.15;;;10.10;99.90;;;;;;5012291;28;20103;-70
2022/02/17 00:25:31;;;;;;;18.65;3.17;;;10.20;99.90;;;;;;5029714;28;20060;-70
2022/02/17 00:27:56;;;;;;;16.27;2.55;;;10.20;99.90;;;;;;5011732;28;20037;-70
2022/02/17 00:30:22;;;;;;;18.85;2.78;;;10.20;99.90;;;;;;5012557;28;20045;-70
2022/02/17 00:32:48;;;;;;;14.00;3.03;;;10.20;99.90;;;;;;5013236;28;20077;-70
2022/02/17 00:35:13;;;;;;;19.33;3.20;;;10.20;99.90;;;;;;5029851;28;20040;-70
2022/02/17 00:37:39;;;;;;;19.38;3.45;;;10.20;99.90;;;;;;4993685;28;20072;-70
2022/02/17 00:40:06;;;;;;;19.60;3.42;;;10.20;99.90;;;;;;5011978;28;20041;-70
2022/02/17 00:42:32;;;;;;;15.32;3.20;;;10.10;99.90;;;;;;5012278;28;20033;-70
2022/02/17 00:44:58;;;;;;;20.65;3.10;;;10.20;99.90;;;;;;4996137;28;20049;-70
2022/02/17 00:47:23;;;;;;;23.27;4.00;;;10.10;99.90;;;;;;5030675;28;20091;-70
2022/02/17 00:49:49;;;;;;;21.27;3.58;;;10.10;99.90;;;;;;5030378;28;20099;-70
2022/02/17 00:52:15;;;;;;;17.42;4.07;;;10.10;99.90;;;;;;5028517;28;20958;-70
2022/02/17 00:54:40;;;;;;;15.38;3.72;;;10.10;99.90;;;;;;5012248;28;20045;-70
2022/02/17 00:57:06;;;;;;;20.77;3.33;;;10.00;99.90;;;;;;5029495;28;20029;-70
2022/02/17 00:59:31;;;;;;;18.48;4.32;;;10.00;99.90;;;;;;5012738;28;20103;-70
2022/02/17 01:01:58;;;;;;;18.55;3.30;;;10.00;99.90;;;;;;5029520;28;20045;-70
2022/02/17 01:04:24;;;;;;;17.80;4.00;;;10.00;99.90;;;;;;5030117;28;20037;-70
2022/02/17 01:06:50;;;;;;;19.45;3.05;;;10.00;99.90;;;;;;5012022;28;20041;-70
2022/02/17 01:09:16;;;;;;;15.95;3.97;;;10.10;99.90;;;;;;5029991;28;20044;-70
2022/02/17 01:11:42;;;;;;;18.88;3.60;;;10.00;99.90;;;;;;5011284;28;20499;-70
2022/02/17 01:14:09;;;;;;;23.67;4.45;;;10.00;99.90;;;;;;5011175;28;20044;-70
2022/02/17 01:16:35;;;;;;;21.77;3.53;;;10.00;99.90;;;;;;5011566;28;20116;-70
2022/02/17 01:19:01;;;;;;;20.90;3.85;;;10.00;99.90;;;;;;5008382;28;20060;-70
2022/02/17 01:21:27;;;;;;;24.85;4.40;;;10.00;99.90;;;;;;5011969;28;20099;-70
2022/02/17 01:23:52;;;;;;;19.75;4.70;;;10.00;99.90;;;;;;5012005;28;20057;-70
2022/02/17 01:26:18;;;;;;;24.45;4.32;;;10.00;99.90;;;;;;5011746;28;20052;-70
2022/02/17 01:28:44;;;;;;;21.13;3.88;;;9.90;99.90;;;;;;5011830;28;20119;-70
2022/02/17 01:31:10;;;;;;;20.58;3.65;;;9.90;99.90;;;;;;5029851;28;20136;-70
2022/02/17 01:33:36;;;;;;;26.60;6.20;;;9.90;99.90;;;;;;5012029;28;20136;-70
2022/02/17 01:36:06;;;;;;;20.77;3.60;;;9.80;99.90;;;;;;5011214;28;20120;-70
2022/02/17 01:38:35;;;;;;;20.70;3.80;;;9.70;99.90;;;;;;5012057;28;20049;-70
2022/02/17 01:41:02;;;;;;;19.13;4.25;;;9.70;99.90;;;;;;5011595;28;20044;-70
2022/02/17 01:43:28;;;;;;;24.40;3.78;;;9.70;99.90;;;;;;5029298;28;20037;-70
2022/02/17 01:45:54;;;;;;;17.00;3.20;;;9.60;99.90;;;;;;5027800;28;20041;-70
2022/02/17 01:48:19;;;;;;;22.05;3.78;;;9.60;99.90;;;;;;5011735;28;20076;-70
2022/02/17 01:50:45;;;;;;;18.52;3.03;;;9.60;99.90;;;;;;5012319;28;20041;-70
2022/02/17 01:53:12;;;;;;;20.13;3.25;;;9.50;99.90;;;;;;5029181;28;20037;-70
2022/02/17 01:55:40;;;;;;;17.98;3.30;;;9.50;99.90;;;;;;5029283;28;20037;-70
2022/02/17 01:58:06;;;;;;;18.30;3.35;;;9.50;99.90;;;;;;5011489;28;20112;-70
2022/02/17 02:00:32;;;;;;;16.20;3.55;;;9.50;99.90;;;;;;5029057;28;20049;-70
2022/02/17 02:02:58;;;;;;;20.48;3.60;;;9.50;99.90;;;;;;5011747;28;20056;-70
2022/02/17 02:05:24;;;;;;;21.65;3.40;;;9.50;99.90;;;;;;5029715;28;20037;-70
2022/02/17 02:07:49;;;;;;;18.60;4.05;;;9.40;99.90;;;;;;5011326;28;20041;-70
2022/02/17 02:10:15;;;;;;;22.85;3.92;;;9.50;99.90;;;;;;5011241;28;20037;-70
2022/02/17 02:12:41;;;;;;;18.40;3.22;;;9.40;99.90;;;;;;5009833;28;20096;-70
2022/02/17 02:15:07;;;;;;;20.58;3.50;;;9.40;99.90;;;;;;5011591;28;20033;-70
2022/02/17 02:17:33;;;;;;;26.75;4.32;;;9.40;99.90;;;;;;5008807;28;20124;-70
2022/02/17 02:20:02;;;;;;;18.40;3.42;;;9.30;99.90;;;;;;5028518;28;20052;-70
2022/02/17 02:22:31;;;;;;;25.27;5.18;;;9.30;99.90;;;;;;5011595;28;20064;-70
2022/02/17 02:25:00;;;;;;;21.55;3.53;;;9.20;99.90;;;;;;5010826;28;20142;-70
2022/02/17 02:27:27;;;;;;;18.15;4.03;;;9.20;99.90;;;;;;5010336;28;20045;-70
2022/02/17 02:29:54;;;;;;;20.10;4.03;;;9.20;99.90;;;;;;5010727;28;20049;-70
2022/02/17 02:32:20;;;;;;;24.77;4.03;;;9.20;99.90;;;;;;5029345;28;20034;-70
2022/02/17 02:34:46;;;;;;;18.42;3.30;;;9.20;99.90;;;;;;5014683;28;20041;-70
2022/02/17 02:37:12;;;;;;;23.75;3.83;;;9.10;99.90;;;;;;5025691;28;20041;-71
2022/02/17 02:39:38;;;;;;;20.65;5.25;;;9.10;99.90;;;;;;4998664;28;20053;-71
2022/02/17 02:42:05;;;;;;;27.17;5.90;;;9.10;99.90;;;;;;5032755;28;20467;-71
2022/02/17 02:44:31;;;;;;;21.00;4.35;;;9.10;99.90;;;;;;5031830;28;20048;-71
2022/02/17 02:46:57;;;;;;;19.73;4.30;;;9.10;99.90;;;;;;5013797;28;20132;-71
2022/02/17 02:49:22;;;;;;;12.15;2.70;;;9.00;99.90;;;;;;5014099;28;20455;-71
2022/02/17 02:51:49;;;;;;;26.92;4.80;;;9.00;99.90;;;;;;5032516;28;20050;-71
2022/02/17 02:54:14;;;;;;;23.48;4.45;;;8.90;99.90;;;;;;5016831;28;20111;-71
2022/02/17 02:56:40;;;;;;;22.35;3.88;;;8.90;99.90;;;;;;5013974;28;20045;-71
2022/02/17 02:59:06;;;;;;;27.17;4.90;;;8.90;99.90;;;;;;5012274;28;20578;-71
2022/02/17 03:01:32;;;;;;;25.88;4.50;;;8.90;99.90;;;;;;5013117;28;20168;-71
2022/02/17 03:03:59;;;;;;;21.40;3.58;;;8.80;99.90;;;;;;5031592;28;20052;-71
2022/02/17 03:06:28;;;;;;;20.08;4.43;;;8.90;99.90;;;;;;5014398;28;20049;-71
2022/02/17 03:08:54;;;;;;;25.63;6.18;;;8.90;99.90;;;;;;5013880;28;20045;-71
2022/02/17 03:11:19;;;;;;;24.27;5.38;;;8.80;99.90;;;;;;5013448;28;20087;-71
2022/02/17 03:13:45;;;;;;;24.17;5.25;;;8.80;99.90;;;;;;5031002;28;20037;-71
2022/02/17 03:16:10;;;;;;;25.63;4.75;;;8.80;99.90;;;;;;5015579;28;20053;-71
2022/02/17 03:18:36;;;;;;;26.05;4.50;;;8.80;99.90;;;;;;5031426;28;20719;-71
2022/02/17 03:21:01;;;;;;;27.70;4.40;;;8.80;99.90;;;;;;5013903;28;20049;-71
2022/02/17 03:23:27;;;;;;;17.63;3.20;;;8.90;99.90;;;;;;5032503;28;20040;-71
2022/02/17 03:25:53;;;;;;;14.57;3.75;;;8.80;99.90;;;;;;5030479;28;20068;-71
2022/02/17 03:28:18;;;;;;;24.75;5.30;;;8.90;99.90;;;;;;5014043;28;20124;-71
2022/02/17 03:30:44;;;;;;;35.17;7.32;;;8.90;99.90;;;;;;5014331;28;20041;-71
2022/02/17 03:33:10;;;;;;;25.50;4.78;;;8.90;99.90;;;;;;5016141;28;20116;-71
2022/02/17 03:35:35;;;;;;;22.15;4.25;;;8.80;99.90;;;;;;5014255;28;20034;-71
2022/02/17 03:38:01;;;;;;;27.42;4.20;;;8.90;99.90;;;;;;5014242;28;20172;-71
2022/02/17 03:40:26;;;;;;;20.75;3.80;;;8.80;99.90;;;;;;5013749;28;20609;-71
2022/02/17 03:42:52;;;;;;;20.17;3.50;;;8.80;99.90;;;;;;5013956;28;20530;-71
2022/02/17 03:45:17;;;;;;;18.33;4.72;;;8.80;99.90;;;;;;5031807;28;20526;-71
2022/02/17 03:47:43;;;;;;;24.88;5.18;;;8.80;99.90;;;;;;5014180;28;20106;-71
2022/02/17 03:50:10;;;;;;;25.70;5.25;;;8.80;99.90;;;;;;5014113;28;20045;-71
2022/02/17 03:52:37;;;;;;;22.70;4.30;;;8.80;99.90;;;;;;5023960;28;20048;-71
2022/02/17 03:55:04;;;;;;;25.30;4.30;;;8.80;99.90;;;;;;5031826;28;20073;-71
2022/02/17 03:57:30;;;;;;;27.98;5.05;;;8.80;99.90;;;;;;5014356;28;20048;-71
2022/02/17 03:59:55;;;;;;;20.10;4.05;;;8.80;99.90;;;;;;5015071;28;20049;-71
2022/02/17 04:02:21;;;;;;;25.75;5.35;;;8.80;99.90;;;;;;5015474;28;20946;-71
2022/02/17 04:04:46;;;;;;;24.55;5.05;;;8.80;99.90;;;;;;5031181;28;20110;-71
2022/02/17 04:07:14;;;;;;;23.13;5.07;;;8.70;99.90;;;;;;5032772;28;20029;-71
2022/02/17 04:09:40;;;;;;;22.02;4.28;;;8.70;99.90;;;;;;5032269;28;20571;-71
2022/02/17 04:12:06;;;;;;;25.80;5.07;;;8.70;99.90;;;;;;5031727;28;20034;-71
2022/02/17 04:14:33;;;;;;;22.95;4.07;;;8.60;99.90;;;;;;5031448;28;20056;-71
2022/02/17 04:16:59;;;;;;;21.55;3.55;;;8.60;99.90;;;;;;5030382;28;20369;-71
2022/02/17 04:19:26;;;;;;;24.50;3.88;;;8.60;99.90;;;;;;5031864;28;20044;-71
2022/02/17 04:21:52;;;;;;;27.23;4.57;;;8.60;99.90;;;;;;5014264;28;20053;-71
2022/02/17 04:24:18;;;;;;;20.85;3.65;;;8.60;99.90;;;;;;5015172;28;20037;-71
2022/02/17 04:26:44;;;;;;;20.45;3.78;;;8.50;99.90;;;;;;5013591;28;20506;-71
2022/02/17 04:29:10;;;;;;;15.35;3.22;;;8.50;99.90;;;;;;5014244;28;20911;-71
2022/02/17 04:31:36;;;;;;;22.58;5.07;;;8.50;99.90;;;;;;5030659;28;20116;-71
2022/02/17 04:34:02;;;;;;;24.38;5.10;;;8.50;99.90;;;;;;5008407;28;20113;-71
2022/02/17 04:36:27;;;;;;;24.98;3.85;;;8.40;99.90;;;;;;5013569;28;20065;-70
2022/02/17 04:38:53;;;;;;;21.05;4.20;;;8.40;99.90;;;;;;5030427;28;20137;-71
2022/02/17 04:44:03;;;;;;;23.10;3.15;;;8.40;99.90;;;;;;5027905;28;20037;-71
2022/02/17 04:46:29;;;;;;;19.02;3.20;;;8.40;99.90;;;;;;5030144;28;20125;-71
2022/02/17 04:48:55;;;;;;;16.92;4.15;;;8.40;99.90;;;;;;5012874;28;20128;-71
2022/02/17 04:51:20;;;;;;;25.30;5.45;;;8.40;99.90;;;;;;5013169;28;20073;-71
2022/02/17 04:53:46;;;;;;;19.45;3.95;;;8.30;99.90;;;;;;5014266;28;20091;-71
2022/02/17 04:56:12;;;;;;;17.42;2.78;;;8.30;99.90;;;;;;5029467;28;20041;-71
2022/02/17 04:58:37;;;;;;;19.27;3.67;;;8.30;99.90;;;;;;5013183;28;20090;-71
2022/02/17 05:01:03;;;;;;;17.30;3.50;;;8.20;99.90;;;;;;5029584;28;20069;-71
2022/02/17 05:03:28;;;;;;;17.45;2.78;;;8.20;99.90;;;;;;5013627;28;20045;-71
2022/02/17 05:05:55;;;;;;;21.50;2.95;;;8.30;99.90;;;;;;5029417;28;20458;-72
2022/02/17 05:08:20;;;;;;;17.52;2.78;;;8.20;99.90;;;;;;5030439;28;20050;-71
2022/02/17 05:10:48;;;;;;;21.13;3.65;;;8.20;99.90;;;;;;5031008;28;20110;-72
2022/02/17 05:13:13;;;;;;;15.15;2.58;;;8.20;99.90;;;;;;5032165;28;20037;-72
2022/02/17 05:15:39;;;;;;;16.38;2.88;;;8.20;99.90;;;;;;5013287;28;20046;-71
2022/02/17 05:18:05;;;;;;;18.67;3.08;;;8.20;99.90;;;;;;5032095;28;20120;-71
2022/02/17 05:20:32;;;;;;;27.27;5.32;;;8.20;99.90;;;;;;5011090;28;20049;-71
2022/02/17 05:22:57;;;;;;;23.83;3.90;;;8.20;99.90;;;;;;5031118;28;20041;-72
2022/02/17 05:25:23;;;;;;;19.10;3.35;;;8.10;99.90;;;;;;5012520;28;20547;-71
2022/02/17 05:27:49;;;;;;;23.13;4.15;;;8.20;99.90;;;;;;5028606;28;20377;-72
2022/02/17 05:30:15;;;;;;;20.20;3.80;;;8.20;99.90;;;;;;4994425;28;20192;-71
2022/02/17 05:32:42;;;;;;;19.40;2.92;;;8.10;99.90;;;;;;5031438;28;20520;-71
2022/02/17 05:35:09;;;;;;;21.02;3.65;;;8.10;99.90;;;;;;5010090;28;20403;-71
2022/02/17 05:37:37;;;;;;;20.67;2.65;;;8.10;99.90;;;;;;5009486;28;20037;-71
2022/02/17 05:40:04;;;;;;;20.13;3.22;;;8.00;99.90;;;;;;5012158;28;20063;-71
2022/02/17 05:42:30;;;;;;;28.10;5.00;;;8.10;99.90;;;;;;5030029;28;21089;-71
2022/02/17 05:44:56;;;;;;;20.60;3.03;;;8.10;99.90;;;;;;5026108;28;20060;-71
2022/02/17 05:47:22;;;;;;;17.25;3.03;;;8.10;99.90;;;;;;5029959;28;20030;-71
2022/02/17 05:49:47;;;;;;;15.95;3.53;;;8.00;99.90;;;;;;5028762;28;20035;-71
2022/02/17 05:52:13;;;;;;;23.08;3.67;;;8.00;99.90;;;;;;5026567;28;20045;-71
2022/02/17 05:54:39;;;;;;;21.67;3.55;;;8.00;99.90;;;;;;5030059;28;20037;-71
2022/02/17 05:57:04;;;;;;;23.10;3.67;;;8.00;99.90;;;;;;5029221;28;20034;-71
2022/02/17 05:59:30;;;;;;;24.77;5.25;;;8.00;99.90;;;;;;5012980;28;20044;-71
2022/02/17 06:01:56;;;;;;;21.52;3.35;;;7.90;99.90;;;;;;5029524;28;20041;-72
2022/02/17 06:04:21;;;;;;;18.13;4.07;;;8.00;99.90;;;;;;5011605;28;20053;-71
2022/02/17 06:06:47;;;;;;;19.95;2.95;;;7.90;99.90;;;;;;5006485;28;20041;-71
2022/02/17 06:09:13;;;;;;;16.52;3.67;;;7.90;99.90;;;;;;5028613;28;20037;-71
2022/02/17 06:11:39;;;;;;;22.98;3.38;;;7.90;99.90;;;;;;5027488;28;20048;-71
2022/02/17 06:14:04;;;;;;;21.73;3.65;;;7.90;99.90;;;;;;5026173;28;20387;-71
2022/02/17 06:16:30;;;;;;;22.88;4.78;;;7.90;99.90;;;;;;5028515;28;20751;-71
2022/02/17 06:18:55;;;;;;;28.30;3.30;;;8.00;99.90;;;;;;5009303;28;20045;-71
2022/02/17 06:21:21;;;;;;;28.33;3.33;;;8.00;99.90;;;;;;5028715;28;20053;-71
2022/02/17 06:23:47;;;;;;;20.60;3.70;;;8.00;99.90;;;;;;5011905;28;20076;-71
2022/02/17 06:26:13;;;;;;;22.88;3.60;;;8.00;99.90;;;;;;5026942;28;20578;-71
2022/02/17 06:28:39;;;;;;;16.95;3.33;;;8.00;99.90;;;;;;5009171;28;20044;-71
2022/02/17 06:31:04;;;;;;;20.48;3.13;;;8.00;99.90;;;;;;5009638;28;20049;-71
2022/02/17 06:33:31;;;;;;;23.90;3.95;;;8.00;99.90;;;;;;5008542;28;20546;-71
2022/02/17 06:35:56;;;;;;;23.05;3.50;;;8.00;99.90;;;;;;5011404;28;20034;-71
2022/02/17 06:38:22;;;;;;;18.77;3.88;;;8.00;99.90;;;;;;5027854;28;20040;-71
2022/02/17 06:40:48;;;;;;;21.52;3.72;;;8.00;99.90;;;;;;5007597;28;20045;-71
2022/02/17 06:43:15;;;;;;;18.98;3.63;;;8.00;99.90;;;;;;5025625;28;20534;-71
2022/02/17 06:45:43;;;;;;;18.33;3.45;;;8.00;99.90;;;;;;5008240;28;20053;-71
2022/02/17 06:48:09;;;;;;;17.67;3.55;;;8.00;99.90;;;;;;5010296;28;20037;-72
2022/02/17 06:50:35;;;;;;;15.55;3.75;;;8.00;99.90;;;;;;5009461;28;20050;-71
2022/02/17 06:53:01;;;;;;;22.30;4.00;;;8.00;99.90;;;;;;5028237;28;20099;-70
2022/02/17 06:55:27;;;;;;;18.63;3.47;;;8.00;99.90;;;;;;5027480;28;20472;-70
2022/02/17 06:57:53;;;;;;;24.52;4.90;;;7.90;99.90;;;;;;5009402;28;20042;-70
2022/02/17 07:00:19;;;;;;;21.38;4.07;;;8.00;99.90;;;;;;5007181;28;20531;-70
2022/02/17 07:02:55;;;;;;;24.35;3.38;;;7.90;99.90;;;;;;5009163;28;20045;-70
2022/02/17 07:05:23;;;;;;;19.55;3.28;;;8.00;99.90;;;;;;5009715;28;20049;-70
2022/02/17 07:07:49;;;;;;;20.10;4.85;;;7.90;99.90;;;;;;5024533;28;20041;-69
2022/02/17 07:10:54;;;;;;;20.88;3.58;;;7.90;99.90;;;;;;5009057;28;20048;-68
2022/02/17 07:13:03;;;;;;;23.50;4.88;;;8.00;99.90;;;;;;5026345;28;20049;-68
2022/02/17 07:15:30;;;;;;;23.58;3.85;;;8.00;99.90;;;;;;5023786;28;20492;-68
2022/02/17 07:17:56;;;;;;;27.70;3.83;;;7.90;99.90;;;;;;5024885;28;20048;-68
2022/02/17 07:20:22;;;;;;;26.27;4.63;;;7.90;99.90;;;;;;5030055;28;20384;-68
2022/02/17 07:22:48;;;;;;;25.00;3.75;;;8.00;99.90;;;;;;5032686;28;20542;-68
2022/02/17 07:25:14;;;;;;;20.70;3.67;;;8.00;99.90;;;;;;5008733;28;20045;-68
2022/02/17 07:27:39;;;;;;;22.05;3.65;;;7.90;99.90;;;;;;5028454;28;20042;-68
2022/02/17 07:30:06;;;;;;;23.10;3.47;;;7.90;99.90;;;;;;5026834;28;20095;-68
2022/02/17 07:32:31;;;;;;;23.33;4.07;;;7.90;99.90;;;;;;5012333;28;20048;-68
2022/02/17 07:34:57;;;;;;;22.30;4.28;;;7.90;99.90;;;;;;5027757;28;20042;-68
2022/02/17 07:37:23;;;;;;;16.38;2.83;;;8.00;99.90;;;;;;5012514;28;20037;-67
2022/02/17 07:39:49;;;;;;;24.58;4.05;;;7.80;99.90;;;;;;5011963;28;20057;-67
2022/02/17 07:42:15;;;;;;;25.38;2.97;;;7.90;99.90;;;;;;5030275;28;20178;-67
2022/02/17 07:44:42;;;;;;;22.52;3.75;;;7.90;99.90;;;;;;5029729;28;20067;-67
2022/02/17 07:47:07;;;;;;;23.58;2.80;;;7.90;99.90;;;;;;5010776;28;20038;-67
2022/02/17 07:49:33;;;;;;;23.45;4.13;;;7.90;99.90;;;;;;5028415;28;20120;-67
2022/02/17 07:52:02;;;;;;;18.40;4.18;;;7.90;99.90;;;;;;5026041;28;20053;-67
2022/02/17 07:54:28;;;;;;;19.20;3.33;;;7.80;99.90;;;;;;5028047;28;20037;-67
2022/02/17 07:56:54;;;;;;;15.30;2.40;;;7.90;99.90;;;;;;5010008;28;20523;-67
2022/02/17 07:59:19;;;;;;;28.50;4.53;;;7.90;99.90;;;;;;5012074;28;20049;-67
2022/02/17 08:01:45;;;;;;;20.10;2.90;;;7.80;99.90;;;;;;5011133;28;20045;-67
2022/02/17 08:04:11;;;;;;;22.10;3.42;;;7.90;99.90;;;;;;5012725;28;20049;-67
2022/02/17 08:06:38;;;;;;;21.48;4.13;;;7.90;99.90;;;;;;5011092;28;20053;-67
2022/02/17 08:09:04;;;;;;;17.23;3.08;;;7.80;99.90;;;;;;5029391;28;20049;-67
2022/02/17 08:11:30;;;;;;;20.05;4.18;;;7.80;99.90;;;;;;5026171;28;20069;-67
2022/02/17 08:13:56;;;;;;;26.92;3.58;;;7.90;99.90;;;;;;5012800;28;20456;-67
2022/02/17 08:16:23;;;;;;;23.00;4.03;;;7.90;99.90;;;;;;5013117;28;20116;-67
2022/02/17 08:18:49;;;;;;;15.25;3.05;;;7.90;99.90;;;;;;5010673;28;20029;-67
2022/02/17 08:21:15;;;;;;;24.30;3.47;;;7.90;99.90;;;;;;5028980;28;20455;-67
2022/02/17 08:23:41;;;;;;;22.65;3.70;;;7.90;99.90;;;;;;5008842;28;20131;-67
2022/02/17 08:26:06;;;;;;;18.70;3.75;;;7.90;99.90;;;;;;5009988;28;20061;-67
2022/02/17 08:28:33;;;;;;;18.90;3.08;;;7.90;99.90;;;;;;5027252;28;20047;-67
2022/02/17 08:30:58;;;;;;;17.48;3.72;;;7.90;99.90;;;;;;5027262;28;20120;-67
2022/02/17 08:33:24;;;;;;;24.33;3.63;;;7.90;99.90;;;;;;5029068;28;20563;-67
2022/02/17 08:35:50;;;;;;;17.25;3.17;;;7.90;99.90;;;;;;5010274;28;20073;-67
2022/02/17 08:38:16;;;;;;;17.25;3.47;;;7.90;99.90;;;;;;5011735;28;20048;-67
2022/02/17 08:40:41;;;;;;;15.88;2.58;;;8.00;99.90;;;;;;5009671;28;20049;-67
2022/02/17 08:43:10;;;;;;;17.60;3.35;;;7.90;99.90;;;;;;5010942;28;20476;-67
2022/02/17 08:45:37;;;;;;;22.35;3.17;;;7.90;99.90;;;;;;5027265;28;20069;-67
2022/02/17 08:48:03;;;;;;;21.98;4.70;;;7.90;99.90;;;;;;4992618;28;20042;-67
2022/02/17 08:50:29;;;;;;;13.32;2.35;;;7.90;99.90;;;;;;5011160;28;20451;-67
2022/02/17 08:52:54;;;;;;;20.67;3.45;;;8.00;99.90;;;;;;5026623;28;20052;-67
2022/02/17 08:55:20;;;;;;;17.83;2.75;;;8.00;99.90;;;;;;5010312;28;20141;-67
2022/02/17 08:57:47;;;;;;;21.83;3.67;;;7.90;99.90;;;;;;5026821;28;20037;-67
2022/02/17 09:00:15;;;;;;;13.82;2.50;;;8.00;99.90;;;;;;5011111;28;20045;-67
2022/02/17 09:02:41;;;;;;;21.10;3.53;;;8.00;99.90;;;;;;5009572;28;20045;-67
2022/02/17 09:05:07;;;;;;;31.08;4.72;;;8.00;99.90;;;;;;5029197;28;20042;-67
2022/02/17 09:07:33;;;;;;;20.88;3.60;;;8.00;99.90;;;;;;5028375;28;20424;-67
2022/02/17 09:09:59;;;;;;;20.90;4.72;;;8.00;99.90;;;;;;5028139;28;20041;-67
2022/02/17 09:12:35;;;;;;;18.17;3.47;;;8.00;99.90;;;;;;5027882;28;20037;-67
2022/02/17 09:15:02;;;;;;;26.55;3.50;;;8.00;99.90;;;;;;5008270;28;20041;-67
2022/02/17 09:17:29;;;;;;;19.83;2.65;;;8.10;99.90;;;;;;5009783;28;20064;-67
2022/02/17 09:19:55;;;;;;;18.75;2.78;;;8.00;99.90;;;;;;5028545;28;20495;-67
2022/02/17 09:22:20;;;;;;;19.10;3.75;;;8.10;99.90;;;;;;5028066;28;20033;-67
2022/02/17 09:24:47;;;;;;;19.40;3.78;;;8.10;99.90;;;;;;5008075;28;20050;-67
2022/02/17 09:27:13;;;;;;;18.65;3.67;;;8.10;99.90;;;;;;5009297;28;20872;-67
2022/02/17 09:29:40;;;;;;;12.27;2.55;;;8.10;99.90;;;;;;5009728;28;20053;-67
2022/02/17 09:32:06;;;;;;;17.08;3.22;;;8.20;99.90;;;;;;5026754;28;20539;-67
2022/02/17 09:34:32;;;;;;;22.20;3.53;;;8.20;99.90;;;;;;5024948;28;20042;-67
2022/02/17 09:36:58;;;;;;;14.90;2.60;;;8.30;99.90;;;;;;4994338;28;20124;-67
2022/02/17 09:39:27;;;;;;;17.63;3.38;;;8.30;99.90;;;;;;5025988;28;20262;-67
2022/02/17 09:41:53;;;;;;;15.57;2.75;;;8.30;99.90;;;;;;5024573;28;20410;-67
2022/02/17 09:44:20;;;;;;;17.88;4.60;;;8.40;99.90;;;;;;5025284;28;20045;-67
2022/02/17 09:46:47;;;;;;;18.27;3.00;;;8.40;99.90;;;;;;5007459;28;20128;-67
2022/02/17 09:49:21;;;;;;;17.15;2.92;;;8.40;99.90;;;;;;5026174;28;20107;-67
2022/02/17 09:51:49;;;;;;;17.55;2.88;;;8.40;99.90;;;;;;5027206;28;20049;-67
2022/02/17 09:54:16;;;;;;;18.48;2.75;;;8.40;99.90;;;;;;5010089;28;20045;-67
2022/02/17 09:56:42;;;;;;;23.98;4.75;;;8.50;99.90;;;;;;5027269;28;20052;-67
2022/02/17 09:59:09;;;;;;;19.70;3.00;;;8.40;99.90;;;;;;5026531;28;20033;-67
2022/02/17 10:01:36;;;;;;;18.13;2.63;;;8.40;99.90;;;;;;5027883;28;20091;-67
2022/02/17 10:04:14;;;;;;;21.42;3.53;;;8.50;99.90;;;;;;5009493;28;20041;-67
2022/02/17 10:06:42;;;;;;;24.15;3.95;;;8.50;99.90;;;;;;5006837;28;20060;-67
2022/02/17 10:09:08;;;;;;;13.90;2.60;;;8.50;99.90;;;;;;5027636;28;20423;-67
2022/02/17 10:11:34;;;;;;;22.48;4.10;;;8.60;99.90;;;;;;5008586;28;20033;-67
2022/02/17 10:14:06;;;;;;;18.10;3.65;;;8.60;99.90;;;;;;5027339;28;20041;-67
2022/02/17 10:16:54;;;;;;;16.13;2.42;;;8.60;99.90;;;;;;5027867;28;20496;-67
2022/02/17 10:19:22;;;;;;;19.90;2.90;;;8.70;99.90;;;;;;5024981;28;20048;-67
2022/02/17 10:21:48;;;;;;;20.52;2.83;;;9.30;99.90;;;;;;5026283;28;20037;-67
2022/02/17 10:24:33;;;;;;;15.80;3.20;;;8.70;99.90;;;;;;5006941;28;20041;-67
2022/02/17 10:27:07;;;;;;;14.60;2.65;;;8.70;99.90;;;;;;5009580;28;20380;-67
2022/02/17 10:29:34;;;;;;;15.57;2.97;;;8.80;99.90;;;;;;5004431;28;20053;-67
2022/02/17 10:32:09;;;;;;;20.95;2.63;;;8.80;99.90;;;;;;5029073;28;20068;-67
2022/02/17 10:34:35;;;;;;;21.58;3.88;;;8.80;99.90;;;;;;5011395;28;20103;-67
2022/02/17 10:37:02;;;;;;;11.32;2.33;;;8.90;99.90;;;;;;5008198;28;20492;-67
2022/02/17 10:39:33;;;;;;;22.98;2.88;;;9.00;99.90;;;;;;5025858;28;20060;-67
2022/02/17 10:42:03;;;;;;;18.83;2.83;;;9.10;99.90;;;;;;5025901;28;20409;-67
2022/02/17 10:44:34;;;;;;;17.58;2.88;;;9.10;99.90;;;;;;5027867;28;21939;-67
2022/02/17 10:47:22;;;;;;;21.88;3.33;;;9.20;99.90;;;;;;5027440;28;20084;-67
2022/02/17 10:49:51;;;;;;;18.98;3.20;;;9.20;99.90;;;;;;5009377;28;20046;-67
2022/02/17 10:52:27;;;;;;;25.23;3.17;;;9.20;99.90;;;;;;5009562;28;20037;-67
2022/02/17 10:55:29;;;;;;;17.45;2.47;;;9.30;99.90;;;;;;5011587;28;20072;-67
2022/02/17 10:57:54;;;;;;;21.05;4.43;;;9.30;99.90;;;;;;4930655;29;20039;-67
2022/02/17 11:00:22;;;;;;;21.38;3.65;;;9.40;99.90;;;;;;5009601;28;20053;-67
2022/02/17 11:02:50;;;;;;;14.90;3.42;;;9.60;99.90;;;;;;5012396;28;20041;-67
2022/02/17 11:05:17;;;;;;;12.57;2.38;;;9.70;99.90;;;;;;5029821;28;20133;-67
2022/02/17 11:07:45;;;;;;;23.25;3.08;;;9.70;99.90;;;;;;5028334;28;20127;-67
2022/02/17 11:10:12;;;;;;;12.88;2.38;;;9.70;99.90;;;;;;5006735;28;20499;-67
2022/02/17 11:12:38;;;;;;;11.65;2.03;;;9.60;99.90;;;;;;5028766;28;20042;-67
2022/02/17 11:15:05;;;;;;;16.08;2.95;;;9.80;99.90;;;;;;5009890;28;20041;-67
2022/02/17 11:17:39;;;;;;;13.93;3.60;;;9.90;99.90;;;;;;5012535;28;20033;-67
2022/02/17 11:20:17;;;;;;;16.58;2.60;;;10.10;99.90;;;;;;5031240;28;20095;-67
2022/02/17 11:22:44;;;;;;;19.73;2.90;;;10.10;99.80;;;;;;5030139;28;20033;-67
2022/02/17 11:25:11;;;;;;;16.88;2.67;;;10.10;99.90;;;;;;5031179;28;20076;-67
2022/02/17 11:28:04;;;;;;;16.15;2.88;;;10.30;99.60;;;;;;5028973;28;20037;-67
2022/02/17 11:30:31;;;;;;;16.63;2.45;;;10.40;98.70;;;;;;5011599;28;20037;-67
2022/02/17 11:33:23;;;;;;;13.60;2.45;;;10.40;98.00;;;;;;5030199;28;20128;-67
2022/02/17 11:35:50;;;;;;;13.65;2.42;;;10.50;97.50;;;;;;5013351;28;20052;-67
2022/02/17 11:38:32;;;;;;;13.13;2.55;;;10.50;96.10;;;;;;5029265;28;20040;-68
2022/02/17 11:41:17;;;;;;;11.98;2.45;;;10.60;95.80;;;;;;5029564;28;20056;-68
2022/02/17 11:43:46;;;;;;;15.95;2.53;;;10.70;96.30;;;;;;5030170;28;20697;-68
2022/02/17 11:46:16;;;;;;;15.65;2.75;;;10.80;95.50;;;;;;5029642;28;20131;-68
2022/02/17 11:48:51;;;;;;;16.00;2.60;;;10.80;95.40;;;;;;5009545;28;20099;-67
2022/02/17 11:51:22;;;;;;;15.63;3.28;;;11.00;94.70;;;;;;5023899;28;20045;-67
2022/02/17 11:54:15;;;;;;;14.27;3.17;;;11.00;93.50;;;;;;5011763;28;20053;-67
2022/02/17 11:56:47;;;;;;;18.73;3.63;;;11.10;95.10;;;;;;5010146;28;20112;-67
2022/02/17 11:59:28;;;;;;;19.60;4.00;;;11.20;94.40;;;;;;5010591;28;20091;-67
2022/02/17 12:01:59;;;;;;;11.60;2.65;;;11.10;94.20;;;;;;5028720;28;20551;-67
2022/02/17 12:04:32;;;;;;;17.33;3.38;;;11.20;94.40;;;;;;5026362;28;20034;-68
2022/02/17 12:07:02;;;;;;;14.13;3.22;;;11.10;93.50;;;;;;5028049;28;20033;-68
2022/02/17 12:09:47;;;;;;;13.77;2.70;;;11.10;93.80;;;;;;5027869;28;20423;-67
2022/02/17 12:12:13;;;;;;;15.23;3.10;;;11.20;94.30;;;;;;5006789;28;20139;-67
2022/02/17 12:14:46;;;;;;;13.75;2.10;;;11.20;93.70;;;;;;5029918;28;20800;-68
2022/02/17 12:17:13;;;;;;;12.95;2.13;;;11.30;93.60;;;;;;5009454;28;20053;-68
2022/02/17 12:19:38;;;;;;;12.63;2.20;;;11.20;92.90;;;;;;5024433;28;20034;-67
2022/02/17 12:22:10;;;;;;;15.63;2.50;;;11.30;93.00;;;;;;5027726;28;20502;-68
2022/02/17 12:24:42;;;;;;;16.45;2.53;;;11.20;92.50;;;;;;5012164;28;20071;-68
2022/02/17 12:27:10;;;;;;;11.43;2.38;;;11.20;92.70;;;;;;5010199;28;20514;-67
2022/02/17 12:29:37;;;;;;;14.23;2.53;;;11.10;92.20;;;;;;5010294;28;20049;-67
2022/02/17 12:32:08;;;;;;;14.43;2.40;;;11.10;92.00;;;;;;5026329;28;20037;-67
2022/02/17 12:34:34;;;;;;;14.00;2.40;;;11.00;92.20;;;;;;5011114;28;20073;-67
2022/02/17 12:37:01;;;;;;;17.75;3.75;;;11.00;92.90;;;;;;5005343;28;20095;-67
2022/02/17 12:39:31;;;;;;;12.15;2.47;;;11.10;93.10;;;;;;5007799;28;20056;-68
2022/02/17 12:42:05;;;;;;;10.13;2.08;;;11.10;92.90;;;;;;5008780;28;20053;-67
2022/02/17 12:44:35;;;;;;;10.73;2.15;;;11.20;93.60;;;;;;5025090;28;20060;-68
2022/02/17 12:47:14;;;;;;;10.32;2.03;;;11.30;92.60;;;;;;5009772;28;20688;-68
2022/02/17 12:49:40;;;;;;;11.40;2.33;;;11.30;92.00;;;;;;5026571;28;20045;-68